Time;durP1;ratioP1;P1;durP2;ratioP2;P2;SDS_P1;SDS_P2;PMS_P1;PMS_P2;Temp;Humidity;BMP_temperature;BMP_pressure;BME280_temperature;BME280_humidity;BME280_pressure;Samples;Min_cycle;Max_cycle;Signal;HPM_P1;HPM_P2
2022/03/29 00:01:57;;;;;;;9.45;6.33;;;14.20;74.70;;;;;;1913306;74;21051;-86
2022/03/29 00:04:47;;;;;;;10.32;6.25;;;14.20;75.50;;;;;;1911659;74;21143;-87
2022/03/29 00:07:38;;;;;;;9.88;6.47;;;14.10;75.50;;;;;;1926164;74;21100;-87
2022/03/29 00:10:31;;;;;;;10.85;6.62;;;14.20;75.70;;;;;;1917065;74;21063;-88
2022/03/29 00:16:05;;;;;;;10.45;7.00;;;14.10;76.70;;;;;;1949684;72;22127;-89
2022/03/29 00:19:15;;;;;;;10.35;6.83;;;14.10;77.30;;;;;;1943191;73;21108;-88
2022/03/29 00:22:06;;;;;;;10.45;7.17;;;14.10;76.70;;;;;;1929069;73;21063;-87
2022/03/29 00:24:58;;;;;;;10.48;6.40;;;14.10;76.80;;;;;;1932183;73;21539;-88
2022/03/29 00:27:50;;;;;;;11.88;6.90;;;14.10;77.10;;;;;;1939950;73;21205;-87
2022/03/29 00:30:42;;;;;;;11.12;6.47;;;14.10;77.40;;;;;;1917801;75;21059;-87
2022/03/29 00:36:16;;;;;;;9.95;5.70;;;14.00;78.20;;;;;;1958396;72;22091;-87
2022/03/29 00:39:25;;;;;;;10.70;6.20;;;14.10;78.50;;;;;;1897453;75;21039;-88
2022/03/29 00:42:16;;;;;;;8.13;6.28;;;14.10;78.50;;;;;;1895293;75;21043;-89
2022/03/29 00:45:12;;;;;;;8.65;6.10;;;14.10;78.60;;;;;;1908872;75;21087;-88
2022/03/29 00:50:43;;;;;;;11.73;6.10;;;14.00;79.30;;;;;;1946536;72;22310;-87
2022/03/29 00:56:37;;;;;;;10.38;6.08;;;13.90;80.00;;;;;;1952997;72;22166;-87
2022/03/29 00:59:48;;;;;;;11.45;6.62;;;13.80;80.20;;;;;;1913588;73;21048;-86
2022/03/29 01:05:22;;;;;;;8.50;5.90;;;13.80;81.30;;;;;;1945376;72;22163;-86
2022/03/29 01:08:34;;;;;;;8.40;5.60;;;13.80;81.50;;;;;;1929187;73;21126;-87
2022/03/29 01:11:26;;;;;;;10.05;6.20;;;13.70;81.90;;;;;;1922418;73;21051;-87
2022/03/29 01:14:18;;;;;;;8.75;5.80;;;13.70;82.40;;;;;;1940479;73;21040;-89
2022/03/29 01:19:52;;;;;;;9.00;5.75;;;13.70;83.10;;;;;;1945139;72;22259;-87
2022/03/29 01:25:43;;;;;;;8.55;5.65;;;13.70;83.60;;;;;;1950999;72;22306;-87
2022/03/29 01:28:53;;;;;;;8.78;6.25;;;13.70;83.70;;;;;;1928904;73;21086;-89
2022/03/29 01:31:45;;;;;;;9.10;6.20;;;13.70;83.90;;;;;;1951531;73;21113;-89
2022/03/29 01:34:38;;;;;;;13.05;6.87;;;13.70;84.70;;;;;;1917609;75;21131;-88
2022/03/29 01:37:30;;;;;;;9.75;6.08;;;13.70;84.80;;;;;;1917739;75;21093;-88
2022/03/29 01:40:23;;;;;;;9.58;5.87;;;13.70;85.00;;;;;;1917792;75;21023;-88
2022/03/29 01:45:57;;;;;;;8.98;5.65;;;13.70;85.90;;;;;;1955412;72;22306;-87
2022/03/29 01:49:08;;;;;;;8.10;6.00;;;13.60;86.20;;;;;;1907191;74;21054;-88
2022/03/29 01:52:03;;;;;;;11.12;5.70;;;13.60;86.50;;;;;;1906692;75;21525;-89
2022/03/29 01:54:55;;;;;;;8.83;5.83;;;13.60;87.00;;;;;;1911843;75;21123;-89
2022/03/29 01:57:48;;;;;;;9.15;5.92;;;13.50;87.60;;;;;;1898458;75;21108;-88
2022/03/29 02:00:41;;;;;;;9.30;5.65;;;13.40;88.10;;;;;;1891788;75;21133;-87
2022/03/29 02:03:33;;;;;;;7.40;6.25;;;13.30;88.70;;;;;;1894115;75;21146;-88
2022/03/29 02:06:25;;;;;;;8.33;6.35;;;13.30;89.60;;;;;;1895644;75;21106;-89
2022/03/29 02:09:16;;;;;;;9.55;5.75;;;13.20;90.20;;;;;;1914632;75;21132;-88
2022/03/29 02:12:12;;;;;;;9.30;5.42;;;13.10;90.30;;;;;;1900930;75;21600;-88
2022/03/29 02:17:52;;;;;;;7.70;6.10;;;13.00;91.20;;;;;;1948041;72;22166;-88
2022/03/29 02:21:02;;;;;;;8.23;5.78;;;12.90;91.40;;;;;;1945486;73;21148;-88
2022/03/29 02:23:54;;;;;;;12.90;5.70;;;12.80;91.80;;;;;;1930583;73;21180;-88
2022/03/29 02:26:45;;;;;;;9.23;6.25;;;12.70;92.60;;;;;;1934940;73;21055;-88
2022/03/29 02:29:37;;;;;;;9.60;5.45;;;12.70;92.60;;;;;;1932660;73;21068;-88
2022/03/29 02:35:10;;;;;;;8.43;5.90;;;12.70;93.30;;;;;;1952365;72;22162;-87
2022/03/29 02:38:20;;;;;;;8.85;6.00;;;12.70;94.10;;;;;;1934255;73;21054;-89
2022/03/29 02:41:11;;;;;;;7.47;5.67;;;12.70;95.60;;;;;;1935620;73;21042;-89
2022/03/29 02:44:03;;;;;;;8.38;6.10;;;12.50;96.00;;;;;;1930897;73;21156;-85
2022/03/29 02:46:56;;;;;;;8.73;5.60;;;12.30;96.20;;;;;;1931024;73;21609;-85
2022/03/29 02:49:48;;;;;;;7.90;5.70;;;12.20;97.00;;;;;;1944678;73;21038;-85
2022/03/29 02:55:25;;;;;;;10.80;6.85;;;12.00;98.20;;;;;;1926175;72;28538;-84
2022/03/29 02:58:35;;;;;;;9.63;6.10;;;12.10;98.90;;;;;;1920089;74;21105;-85
2022/03/29 03:01:29;;;;;;;10.08;6.28;;;12.00;99.90;;;;;;1921566;74;21118;-86
2022/03/29 03:04:21;;;;;;;9.05;5.92;;;11.90;99.70;;;;;;1912213;75;21145;-88
2022/03/29 03:09:54;;;;;;;8.55;5.78;;;11.90;99.90;;;;;;1936621;72;22912;-87
2022/03/29 03:15:42;;;;;;;10.08;6.30;;;11.90;99.90;;;;;;1959009;72;22209;-87
2022/03/29 03:21:35;;;;;;;9.05;5.97;;;11.80;99.90;;;;;;1950450;72;22143;-87
2022/03/29 03:24:44;;;;;;;9.25;6.28;;;11.60;99.90;;;;;;1903911;75;21121;-88
2022/03/29 03:27:36;;;;;;;10.43;6.20;;;11.60;99.90;;;;;;1898549;75;21537;-88
2022/03/29 03:30:28;;;;;;;10.82;6.53;;;11.60;99.90;;;;;;1896655;75;21087;-88
2022/03/29 03:35:58;;;;;;;12.10;6.20;;;11.60;99.90;;;;;;1944114;72;22136;-87
2022/03/29 03:41:48;;;;;;;9.60;5.35;;;11.40;99.90;;;;;;1955398;72;22671;-89
2022/03/29 03:44:58;;;;;;;8.78;6.42;;;11.50;99.90;;;;;;1927804;74;21105;-88
2022/03/29 03:47:50;;;;;;;15.13;6.47;;;11.50;99.90;;;;;;1905314;75;21125;-89
2022/03/29 03:50:41;;;;;;;10.53;6.40;;;11.40;99.90;;;;;;1905417;75;21063;-89
2022/03/29 03:53:33;;;;;;;9.98;6.75;;;11.40;99.90;;;;;;1905446;75;21495;-88
2022/03/29 03:56:25;;;;;;;9.75;7.03;;;11.50;99.90;;;;;;1905438;75;21603;-89
2022/03/29 03:59:16;;;;;;;9.20;7.00;;;11.60;99.90;;;;;;1921422;74;21282;-88
2022/03/29 04:02:08;;;;;;;11.22;6.12;;;11.40;99.90;;;;;;1905395;75;21110;-89
2022/03/29 04:05:00;;;;;;;7.62;5.92;;;11.40;99.90;;;;;;1922020;74;21173;-88
2022/03/29 04:07:52;;;;;;;8.90;6.47;;;11.30;99.90;;;;;;1939170;74;21157;-88
2022/03/29 04:10:43;;;;;;;9.13;6.45;;;11.30;99.90;;;;;;1923958;74;21048;-88
2022/03/29 04:13:35;;;;;;;10.28;6.58;;;11.20;99.90;;;;;;1938949;74;21063;-88
2022/03/29 04:16:27;;;;;;;8.50;6.47;;;11.30;99.90;;;;;;1916209;74;21554;-88
2022/03/29 04:19:18;;;;;;;9.28;6.72;;;11.30;99.90;;;;;;1913761;74;21060;-89
2022/03/29 04:22:09;;;;;;;9.53;7.28;;;11.30;99.90;;;;;;1905124;75;21175;-90
2022/03/29 04:25:01;;;;;;;7.55;6.58;;;11.30;99.90;;;;;;1937565;74;21096;-88
2022/03/29 04:30:32;;;;;;;12.70;7.45;;;11.20;99.90;;;;;;1966108;72;22119;-88
2022/03/29 04:33:44;;;;;;;12.20;7.35;;;11.30;99.90;;;;;;1950423;73;21088;-88
2022/03/29 04:36:35;;;;;;;10.93;7.35;;;11.30;99.90;;;;;;1917803;75;21121;-89
2022/03/29 04:39:26;;;;;;;9.60;7.55;;;11.20;99.90;;;;;;1917719;75;21043;-89
2022/03/29 04:42:19;;;;;;;10.35;7.30;;;11.20;99.90;;;;;;1924922;73;21117;-89
2022/03/29 04:45:11;;;;;;;10.10;7.17;;;11.20;99.90;;;;;;1917492;75;21132;-89
2022/03/29 04:50:43;;;;;;;12.80;7.90;;;11.20;99.90;;;;;;1956126;72;22318;-87
2022/03/29 04:53:53;;;;;;;13.60;6.60;;;11.20;99.90;;;;;;1905067;74;21098;-88
2022/03/29 04:56:45;;;;;;;10.03;6.78;;;11.10;99.90;;;;;;1895591;75;21246;-88
2022/03/29 05:02:16;;;;;;;9.00;6.45;;;10.90;99.90;;;;;;1943916;72;22290;-87
2022/03/29 05:05:28;;;;;;;8.83;6.97;;;10.70;99.90;;;;;;1897074;75;21083;-88
2022/03/29 05:10:58;;;;;;;15.23;7.08;;;10.60;99.90;;;;;;1953227;72;22149;-86
2022/03/29 05:14:08;;;;;;;12.28;6.90;;;10.70;99.90;;;;;;1937851;73;21109;-88
2022/03/29 05:17:00;;;;;;;11.83;7.08;;;10.70;99.90;;;;;;1917725;75;21169;-89
2022/03/29 05:19:52;;;;;;;16.30;6.65;;;10.60;99.90;;;;;;1917626;75;21074;-87
2022/03/29 05:25:26;;;;;;;11.45;7.33;;;10.40;99.90;;;;;;1954482;72;22134;-89
2022/03/29 05:31:16;;;;;;;11.85;7.30;;;10.60;99.90;;;;;;1946587;72;22258;-89
2022/03/29 05:34:26;;;;;;;13.25;7.33;;;10.70;99.90;;;;;;1924989;74;21812;-89
2022/03/29 05:37:17;;;;;;;13.05;7.03;;;10.70;99.90;;;;;;1916342;74;21080;-89
2022/03/29 05:40:11;;;;;;;13.85;6.75;;;10.70;99.90;;;;;;1927012;74;21121;-88
2022/03/29 05:48:51;;;;;;;10.65;6.95;;;10.70;99.90;;;;;;1942950;72;22230;-89
2022/03/29 05:48:56;;;;;;;8.55;6.80;;;10.80;99.90;;;;;;1915926;75;21044;-88
2022/03/29 05:51:49;;;;;;;14.80;7.65;;;10.80;99.90;;;;;;1933385;74;21475;-89
2022/03/29 05:54:45;;;;;;;10.25;6.92;;;10.80;99.90;;;;;;1880435;76;21134;-89
2022/03/29 06:00:14;;;;;;;10.20;6.85;;;10.70;99.90;;;;;;1942853;72;22271;-76
2022/03/29 06:03:27;;;;;;;10.20;6.95;;;10.80;99.90;;;;;;1926621;73;21062;-75
2022/03/29 06:06:18;;;;;;;13.75;7.30;;;10.90;99.90;;;;;;1923819;73;21094;-74
2022/03/29 06:11:47;;;;;;;15.23;7.70;;;11.00;99.90;;;;;;1963424;72;22611;-76
2022/03/29 06:17:37;;;;;;;16.97;7.70;;;11.20;99.90;;;;;;1954902;72;22245;-76
2022/03/29 06:20:46;;;;;;;13.18;9.45;;;11.30;99.90;;;;;;1906696;75;21051;-76
2022/03/29 06:23:38;;;;;;;13.48;8.15;;;11.40;99.90;;;;;;1903220;75;21117;-75
2022/03/29 06:26:30;;;;;;;11.53;8.38;;;11.40;99.90;;;;;;1898388;75;21117;-75
2022/03/29 06:29:22;;;;;;;15.63;8.83;;;11.40;99.90;;;;;;1900722;73;21094;-76
2022/03/29 06:32:14;;;;;;;14.40;8.05;;;11.50;99.90;;;;;;1908547;75;21146;-76
2022/03/29 06:35:06;;;;;;;11.18;7.60;;;11.60;99.90;;;;;;1904318;75;21155;-75
2022/03/29 06:37:59;;;;;;;19.30;8.78;;;11.70;99.90;;;;;;1908541;75;21117;-76
2022/03/29 06:40:53;;;;;;;13.05;7.95;;;11.70;99.90;;;;;;1896362;75;21055;-75
2022/03/29 06:43:44;;;;;;;15.63;7.97;;;11.80;99.90;;;;;;1887637;75;21044;-76
2022/03/29 06:46:36;;;;;;;17.07;7.62;;;11.90;99.90;;;;;;1895566;75;21071;-76
2022/03/29 06:49:28;;;;;;;15.05;8.45;;;12.00;99.90;;;;;;1907381;75;21160;-77
2022/03/29 06:52:26;;;;;;;16.02;8.58;;;12.10;99.90;;;;;;1897450;75;21251;-75
2022/03/29 06:58:00;;;;;;;16.40;8.10;;;12.30;99.90;;;;;;1951597;72;22134;-76
2022/03/29 07:01:10;;;;;;;15.25;9.10;;;12.30;99.90;;;;;;1883193;75;21070;-76
2022/03/29 07:06:45;;;;;;;16.20;7.67;;;12.40;99.90;;;;;;1943348;72;22177;-74
2022/03/29 07:13:06;;;;;;;14.35;7.53;;;12.60;99.90;;;;;;1887005;75;21114;-75
2022/03/29 07:15:57;;;;;;;13.75;7.60;;;12.70;99.90;;;;;;1910025;75;21128;-75
2022/03/29 07:21:27;;;;;;;16.57;11.28;;;13.00;99.90;;;;;;1955841;72;22280;-76
2022/03/29 07:24:39;;;;;;;16.90;9.70;;;13.00;99.90;;;;;;1896197;75;21036;-76
2022/03/29 07:27:31;;;;;;;13.15;9.13;;;13.10;99.90;;;;;;1895077;75;21062;-76
2022/03/29 07:30:23;;;;;;;12.63;8.40;;;13.30;99.90;;;;;;1873926;76;21054;-75
2022/03/29 07:33:17;;;;;;;17.05;8.98;;;13.40;99.90;;;;;;1898980;75;21099;-75
2022/03/29 07:36:08;;;;;;;19.27;9.73;;;13.30;99.90;;;;;;1896118;75;21125;-75
2022/03/29 07:38:59;;;;;;;15.03;8.35;;;13.30;99.90;;;;;;1906337;75;21082;-75
2022/03/29 07:41:51;;;;;;;12.80;7.53;;;13.40;99.90;;;;;;1917019;75;21506;-75
2022/03/29 07:44:42;;;;;;;13.75;7.75;;;13.50;99.90;;;;;;1912973;75;21059;-75
2022/03/29 07:47:35;;;;;;;15.32;8.80;;;13.60;99.90;;;;;;1884600;75;21057;-75
2022/03/29 07:50:28;;;;;;;13.58;7.75;;;13.80;99.90;;;;;;1914006;75;21063;-76
2022/03/29 07:53:24;;;;;;;11.10;7.80;;;13.90;99.90;;;;;;1904358;75;21166;-75
2022/03/29 07:56:15;;;;;;;15.32;7.47;;;14.00;99.90;;;;;;1906910;75;21125;-75
2022/03/29 07:59:07;;;;;;;17.37;7.67;;;14.10;99.90;;;;;;1891743;75;21062;-75
2022/03/29 08:01:58;;;;;;;11.60;7.80;;;14.10;99.90;;;;;;1906744;75;21055;-75
2022/03/29 08:07:29;;;;;;;12.45;6.92;;;14.20;99.90;;;;;;1976319;72;22198;-74
2022/03/29 08:10:39;;;;;;;11.15;7.10;;;14.20;99.90;;;;;;1951610;73;21091;-75
2022/03/29 08:13:30;;;;;;;13.50;7.95;;;14.20;99.90;;;;;;1917291;75;21203;-75
2022/03/29 08:16:22;;;;;;;12.68;7.45;;;14.30;99.90;;;;;;1917560;75;21600;-75
2022/03/29 08:19:15;;;;;;;12.90;7.08;;;14.30;99.90;;;;;;1917626;73;21174;-75
2022/03/29 08:22:07;;;;;;;12.80;8.38;;;14.30;99.90;;;;;;1917355;75;21133;-75
2022/03/29 08:25:00;;;;;;;14.18;8.13;;;14.50;99.90;;;;;;1938836;73;21102;-75
2022/03/29 08:30:37;;;;;;;13.05;7.67;;;15.00;99.90;;;;;;1932764;72;22115;-75
2022/03/29 08:33:47;;;;;;;10.25;7.42;;;14.80;99.90;;;;;;1900318;75;21475;-75
2022/03/29 08:39:17;;;;;;;13.50;7.22;;;14.80;99.90;;;;;;1927548;72;22586;-76
2022/03/29 08:42:27;;;;;;;12.33;7.08;;;14.90;99.90;;;;;;1918445;74;21025;-76
2022/03/29 08:45:19;;;;;;;12.55;8.43;;;15.00;99.90;;;;;;1910897;75;21134;-76
2022/03/29 08:50:52;;;;;;;14.47;8.50;;;15.20;99.90;;;;;;1961782;72;22107;-76
2022/03/29 08:56:42;;;;;;;15.50;8.50;;;15.40;99.90;;;;;;1947753;72;22287;-76
2022/03/29 08:59:52;;;;;;;11.08;8.25;;;15.40;99.90;;;;;;1926190;73;21028;-76
2022/03/29 09:05:26;;;;;;;12.75;9.08;;;15.60;99.90;;;;;;1929011;72;22133;-75
2022/03/29 09:11:22;;;;;;;12.73;8.40;;;15.90;99.90;;;;;;1940619;72;22226;-75
2022/03/29 09:14:33;;;;;;;16.30;8.93;;;16.00;99.90;;;;;;1908917;75;21502;-75
2022/03/29 09:17:30;;;;;;;12.98;7.92;;;15.70;99.90;;;;;;1896871;75;21106;-75
2022/03/29 09:20:25;;;;;;;13.53;8.30;;;15.60;99.90;;;;;;1889897;75;21109;-75
2022/03/29 09:25:58;;;;;;;16.27;7.85;;;15.10;99.90;;;;;;1952883;72;22162;-77
2022/03/29 09:29:16;;;;;;;17.42;9.23;;;15.00;99.90;;;;;;1896587;75;21150;-76
2022/03/29 09:32:17;;;;;;;21.77;9.00;;;15.10;99.90;;;;;;1906175;75;21051;-76
2022/03/29 09:35:08;;;;;;;18.40;9.20;;;15.00;99.90;;;;;;1904041;75;21160;-75
2022/03/29 09:40:39;;;;;;;15.55;8.98;;;15.00;99.90;;;;;;1945096;72;22668;-75
2022/03/29 09:44:06;;;;;;;13.95;9.00;;;14.80;99.90;;;;;;1924557;73;21083;-76
2022/03/29 09:47:00;;;;;;;22.82;10.45;;;14.80;99.90;;;;;;1917236;75;21147;-75
2022/03/29 09:50:01;;;;;;;17.35;10.35;;;14.60;99.90;;;;;;1947843;73;21072;-75
2022/03/29 09:52:52;;;;;;;18.80;10.38;;;14.70;99.90;;;;;;1862478;76;21183;-76
2022/03/29 09:55:43;;;;;;;20.88;10.50;;;14.60;99.90;;;;;;1874339;76;21069;-76
2022/03/29 09:58:36;;;;;;;15.28;10.05;;;14.90;99.90;;;;;;1939395;73;21059;-75
2022/03/29 10:01:27;;;;;;;20.48;11.30;;;15.00;99.70;;;;;;1920028;73;21059;-75
2022/03/29 10:07:00;;;;;;;22.22;10.50;;;14.90;98.70;;;;;;1955985;72;22090;-76
2022/03/29 10:12:51;;;;;;;21.17;9.88;;;15.00;97.80;;;;;;1949747;72;22251;-75
2022/03/29 10:16:04;;;;;;;15.60;10.60;;;15.10;97.20;;;;;;1917469;75;21167;-77
2022/03/29 10:21:39;;;;;;;21.57;10.72;;;15.30;95.80;;;;;;1975954;72;22099;-76
2022/03/29 10:27:28;;;;;;;20.95;11.15;;;15.40;95.80;;;;;;1949811;72;22252;-77
2022/03/29 10:30:39;;;;;;;20.05;10.45;;;15.50;95.80;;;;;;1926595;73;21194;-75
2022/03/29 10:33:33;;;;;;;19.17;11.22;;;15.50;94.80;;;;;;1880729;76;21549;-75
2022/03/29 10:36:25;;;;;;;19.65;11.70;;;15.70;94.80;;;;;;1933271;73;21125;-75
2022/03/29 10:39:22;;;;;;;19.37;11.70;;;15.80;94.50;;;;;;1918055;73;21102;-75
2022/03/29 10:45:17;;;;;;;21.20;11.48;;;15.90;94.20;;;;;;1947067;72;22171;-75
2022/03/29 10:48:28;;;;;;;17.82;11.10;;;15.80;93.60;;;;;;1914193;75;21113;-76
2022/03/29 10:51:26;;;;;;;15.23;10.28;;;16.00;93.10;;;;;;1904057;75;21511;-75
2022/03/29 10:54:29;;;;;;;19.10;10.28;;;16.10;92.40;;;;;;1904667;74;21062;-76
2022/03/29 10:57:24;;;;;;;17.45;9.45;;;16.20;91.80;;;;;;1881983;76;21588;-76
2022/03/29 11:00:31;;;;;;;12.65;9.35;;;16.30;91.60;;;;;;1892777;74;21176;-75
2022/03/29 11:03:20;;;;;;;13.45;9.18;;;16.40;91.20;;;;;;1895001;75;21047;-75
2022/03/29 11:06:17;;;;;;;17.65;9.50;;;16.50;90.00;;;;;;1895352;75;21047;-75
2022/03/29 11:11:47;;;;;;;18.40;9.00;;;16.70;88.00;;;;;;1942196;72;22648;-75
2022/03/29 11:17:41;;;;;;;18.02;8.48;;;17.10;86.60;;;;;;1956254;72;22238;-75
2022/03/29 11:21:02;;;;;;;15.10;8.90;;;17.30;84.50;;;;;;1908549;75;21066;-76
2022/03/29 11:26:28;;;;;;;14.07;8.08;;;17.50;79.60;;;;;;1955982;72;22166;-75
2022/03/29 11:29:39;;;;;;;19.05;8.70;;;17.60;79.50;;;;;;1900041;74;21093;-75
2022/03/29 11:32:31;;;;;;;16.80;8.33;;;17.80;78.60;;;;;;1905737;75;21102;-75
2022/03/29 11:35:24;;;;;;;14.55;8.43;;;17.80;77.70;;;;;;1899897;75;21063;-75
2022/03/29 11:40:53;;;;;;;12.68;8.78;;;18.20;77.20;;;;;;1947925;72;22111;-77
2022/03/29 11:44:06;;;;;;;14.23;8.08;;;18.30;75.70;;;;;;1914042;74;21106;-76
2022/03/29 11:47:00;;;;;;;17.25;8.65;;;18.40;75.00;;;;;;1934393;74;21113;-76
2022/03/29 11:55:18;;;;;;;13.80;8.55;;;18.60;72.80;;;;;;1952544;72;22126;-75
2022/03/29 11:58:30;;;;;;;17.07;8.00;;;18.70;73.00;;;;;;1927846;73;21132;-77
2022/03/29 12:01:24;;;;;;;13.15;8.28;;;18.80;70.30;;;;;;1940224;73;21189;-77
2022/03/29 12:06:54;;;;;;;14.43;8.48;;;18.80;69.80;;;;;;1964660;72;22260;-75
2022/03/29 12:10:05;;;;;;;18.25;8.53;;;19.00;70.00;;;;;;1923310;73;21149;-77
2022/03/29 12:15:35;;;;;;;16.00;8.70;;;19.10;69.30;;;;;;1954482;72;22146;-75
2022/03/29 12:21:25;;;;;;;12.25;7.72;;;19.20;68.60;;;;;;1965558;72;22121;-75
2022/03/29 12:24:37;;;;;;;14.15;7.42;;;19.20;68.20;;;;;;1898950;75;21126;-75
2022/03/29 12:27:29;;;;;;;13.53;7.45;;;19.30;67.70;;;;;;1934072;73;21076;-74
2022/03/29 12:30:21;;;;;;;13.58;7.28;;;19.30;66.20;;;;;;1912400;75;21071;-75
2022/03/29 12:36:06;;;;;;;16.07;7.60;;;19.40;64.30;;;;;;1945419;72;22600;-75
2022/03/29 12:39:16;;;;;;;13.38;6.80;;;19.50;64.10;;;;;;1906034;75;21193;-75
2022/03/29 12:42:10;;;;;;;16.70;7.50;;;19.80;63.90;;;;;;1906557;75;21191;-75
2022/03/29 12:45:08;;;;;;;12.95;7.30;;;19.80;62.00;;;;;;1897943;75;21185;-75
2022/03/29 12:48:01;;;;;;;13.87;8.10;;;19.70;62.80;;;;;;1903702;75;21108;-75
2022/03/29 12:50:53;;;;;;;14.03;7.08;;;19.90;63.10;;;;;;1898735;75;21342;-75
2022/03/29 12:53:58;;;;;;;10.80;7.35;;;20.10;61.60;;;;;;1901286;75;21616;-75
2022/03/29 12:56:50;;;;;;;11.10;7.05;;;19.90;61.80;;;;;;1888669;75;21108;-75
2022/03/29 12:59:45;;;;;;;11.90;6.37;;;19.90;61.30;;;;;;1895230;75;21063;-75
2022/03/29 13:02:39;;;;;;;14.78;7.30;;;19.60;61.60;;;;;;1898212;75;21058;-77
2022/03/29 13:11:18;;;;;;;16.50;7.05;;;19.90;58.00;;;;;;1939458;72;22164;-75
2022/03/29 13:14:36;;;;;;;11.43;6.60;;;20.00;57.30;;;;;;1905231;75;21129;-77
2022/03/29 13:17:36;;;;;;;13.55;6.47;;;20.40;58.00;;;;;;1905706;75;21071;-75
2022/03/29 13:20:28;;;;;;;18.07;7.00;;;20.40;57.60;;;;;;1904114;75;21549;-75
2022/03/29 13:26:14;;;;;;;13.55;6.25;;;20.30;58.10;;;;;;1944621;72;22600;-75
2022/03/29 13:29:24;;;;;;;16.12;6.28;;;20.40;55.70;;;;;;1895018;75;21093;-76
2022/03/29 13:32:16;;;;;;;18.23;6.33;;;20.60;55.60;;;;;;1890225;75;21121;-75
2022/03/29 13:35:10;;;;;;;17.85;6.75;;;20.60;56.60;;;;;;1884596;76;21121;-75
2022/03/29 13:40:41;;;;;;;19.07;6.28;;;20.90;55.80;;;;;;1950378;72;22146;-75
2022/03/29 13:43:51;;;;;;;15.95;7.35;;;20.70;54.10;;;;;;1906754;75;21051;-77
2022/03/29 13:46:43;;;;;;;12.75;6.17;;;20.60;54.30;;;;;;1906782;75;21102;-75
2022/03/29 13:49:38;;;;;;;16.90;5.65;;;20.60;52.10;;;;;;1911719;75;21088;-75
2022/03/29 13:55:14;;;;;;;12.20;5.92;;;20.80;54.00;;;;;;1927785;72;22643;-75
2022/03/29 14:01:05;;;;;;;14.00;6.78;;;21.10;55.70;;;;;;1926125;72;22240;-75
2022/03/29 14:04:15;;;;;;;15.95;6.50;;;21.10;55.50;;;;;;1917422;75;21114;-75
2022/03/29 14:07:07;;;;;;;14.98;6.50;;;21.20;56.10;;;;;;1884743;76;21070;-75
2022/03/29 14:09:59;;;;;;;15.88;6.60;;;21.30;55.90;;;;;;1884724;75;21152;-74
2022/03/29 14:12:51;;;;;;;11.38;6.05;;;21.30;55.00;;;;;;1891849;75;21126;-75
2022/03/29 14:15:47;;;;;;;13.18;6.22;;;21.20;54.10;;;;;;1914063;74;21062;-74
2022/03/29 14:21:17;;;;;;;17.70;6.67;;;21.30;51.10;;;;;;1949948;72;22118;-75
2022/03/29 14:24:28;;;;;;;11.85;6.58;;;21.50;53.10;;;;;;1894769;75;21134;-75
2022/03/29 14:27:19;;;;;;;13.25;6.70;;;21.40;54.60;;;;;;1886574;75;21063;-75
2022/03/29 14:30:15;;;;;;;14.93;7.03;;;21.20;56.40;;;;;;1903347;75;21120;-75
2022/03/29 14:35:49;;;;;;;19.82;6.65;;;20.30;57.10;;;;;;1947147;72;22211;-75
2022/03/29 14:41:39;;;;;;;13.70;6.35;;;19.80;58.30;;;;;;1933716;72;22146;-75
2022/03/29 14:47:31;;;;;;;13.20;7.25;;;19.50;59.30;;;;;;1958195;72;22153;-77
2022/03/29 14:50:41;;;;;;;12.53;6.40;;;19.40;59.60;;;;;;1915967;75;21099;-76
2022/03/29 14:56:13;;;;;;;8.65;5.55;;;19.60;59.70;;;;;;1954406;72;22261;-75
2022/03/29 14:59:23;;;;;;;13.55;6.35;;;19.80;59.60;;;;;;1920138;73;21638;-76
2022/03/29 15:02:17;;;;;;;16.70;6.12;;;19.80;58.30;;;;;;1932503;73;21063;-76
2022/03/29 15:05:11;;;;;;;15.18;6.33;;;19.70;59.60;;;;;;1918102;73;21587;-75
2022/03/29 15:08:03;;;;;;;11.57;5.78;;;19.50;59.80;;;;;;1923173;73;21035;-76
2022/03/29 15:10:55;;;;;;;13.60;5.87;;;20.30;58.50;;;;;;1917410;75;21226;-75
2022/03/29 15:16:39;;;;;;;16.15;6.30;;;21.50;57.50;;;;;;1963157;72;22135;-75
2022/03/29 15:19:50;;;;;;;12.07;5.87;;;22.10;57.20;;;;;;1932519;73;21551;-76
2022/03/29 15:22:42;;;;;;;12.40;5.85;;;22.00;56.70;;;;;;1917606;75;21151;-75
2022/03/29 15:25:34;;;;;;;13.55;5.80;;;21.60;56.40;;;;;;1917426;75;21043;-75
2022/03/29 15:31:04;;;;;;;10.05;5.05;;;20.60;57.90;;;;;;1956498;72;22092;-75
2022/03/29 15:34:30;;;;;;;16.40;6.22;;;20.40;58.50;;;;;;1895134;75;21153;-76
2022/03/29 15:37:09;;;;;;;9.48;5.08;;;20.30;59.00;;;;;;1917230;75;21096;-76
2022/03/29 15:42:41;;;;;;;13.03;5.08;;;19.70;59.60;;;;;;1949951;72;22293;-74
2022/03/29 15:45:52;;;;;;;9.30;4.70;;;19.60;59.90;;;;;;1929026;73;21114;-75
2022/03/29 15:48:44;;;;;;;10.45;4.67;;;19.60;60.40;;;;;;1928236;73;21502;-75
2022/03/29 15:51:36;;;;;;;16.80;5.10;;;19.20;61.10;;;;;;1947985;73;21096;-75
2022/03/29 15:57:07;;;;;;;10.43;4.90;;;18.90;62.20;;;;;;1955698;72;22129;-77
2022/03/29 16:02:57;;;;;;;15.98;5.03;;;18.80;62.70;;;;;;1949672;72;22590;-75
2022/03/29 16:06:07;;;;;;;10.25;4.03;;;18.80;63.00;;;;;;1906424;75;21113;-76
2022/03/29 16:11:38;;;;;;;8.28;4.42;;;18.60;63.40;;;;;;1949178;72;22122;-77
2022/03/29 16:14:49;;;;;;;12.03;4.17;;;18.50;64.20;;;;;;1913779;75;21063;-76
2022/03/29 16:20:20;;;;;;;14.23;4.87;;;18.40;64.30;;;;;;1948232;72;22109;-76
2022/03/29 16:26:11;;;;;;;11.45;4.20;;;18.30;65.30;;;;;;1942183;72;22303;-75
2022/03/29 16:29:28;;;;;;;9.95;4.20;;;18.30;65.40;;;;;;1899515;75;21185;-75
2022/03/29 16:32:24;;;;;;;15.58;4.58;;;18.40;65.50;;;;;;1879654;75;21544;-75
2022/03/29 16:35:16;;;;;;;10.90;4.20;;;18.30;65.90;;;;;;1877954;75;21519;-76
2022/03/29 16:38:08;;;;;;;14.65;4.78;;;18.40;66.40;;;;;;1888614;75;21052;-75
2022/03/29 16:41:01;;;;;;;12.28;4.72;;;18.50;66.30;;;;;;1883934;75;21047;-75
2022/03/29 16:46:35;;;;;;;10.48;4.58;;;19.10;65.70;;;;;;1950142;72;22738;-77
2022/03/29 16:49:50;;;;;;;9.53;4.30;;;19.10;66.00;;;;;;1918144;75;21042;-92
2022/03/29 16:52:42;;;;;;;11.25;4.00;;;18.90;66.10;;;;;;1918234;75;21105;-92
2022/03/29 16:55:34;;;;;;;13.13;4.35;;;18.90;66.40;;;;;;1918525;75;21104;-90
2022/03/29 16:58:30;;;;;;;;;;;18.70;67.10;;;;;;1926552;73;21160;-92
2022/03/29 17:01:23;;;;;;;12.30;4.50;;;18.50;67.70;;;;;;1929681;73;20127;-92
2022/03/29 17:04:16;;;;;;;15.35;4.42;;;18.30;68.50;;;;;;1918255;75;21160;-93
2022/03/29 17:07:11;;;;;;;9.60;4.20;;;18.20;69.70;;;;;;1918271;75;21074;-92
2022/03/29 17:10:04;;;;;;;10.35;4.72;;;18.20;69.80;;;;;;1918663;75;21179;-93
2022/03/29 17:12:55;;;;;;;11.75;4.30;;;18.10;70.60;;;;;;1921438;73;21176;-90
2022/03/29 17:19:30;;;;;;;13.68;4.42;;;18.00;71.10;;;;;;1994682;71;22578;-93
2022/03/29 17:25:23;;;;;;;15.13;4.08;;;17.90;71.00;;;;;;1926239;72;22269;-95
2022/03/29 17:28:33;;;;;;;10.98;4.70;;;17.90;71.20;;;;;;1887294;75;21200;-93
2022/03/29 17:31:26;;;;;;;16.32;4.30;;;17.80;71.80;;;;;;1890502;75;21063;-91
2022/03/29 17:34:19;;;;;;;8.68;4.00;;;17.70;71.60;;;;;;1895727;75;21130;-91
2022/03/29 17:37:11;;;;;;;15.65;4.87;;;17.70;72.30;;;;;;1873418;76;21187;-95
2022/03/29 17:40:02;;;;;;;10.93;4.20;;;17.70;72.80;;;;;;1877345;75;21071;-91
2022/03/29 17:42:54;;;;;;;14.53;4.78;;;17.70;72.90;;;;;;1888137;75;21129;-91
2022/03/29 17:45:46;;;;;;;11.70;5.03;;;17.60;74.00;;;;;;1873418;76;21517;-90
2022/03/29 17:48:39;;;;;;;15.65;4.65;;;17.60;74.40;;;;;;1895199;75;21177;-92
2022/03/29 17:51:32;;;;;;;11.20;4.95;;;17.50;75.40;;;;;;1894361;75;21168;-92
2022/03/29 17:54:24;;;;;;;16.82;5.50;;;17.40;75.90;;;;;;1889741;75;21204;-90
2022/03/29 17:57:17;;;;;;;13.85;4.67;;;17.40;76.70;;;;;;1873568;76;21083;-89
2022/03/29 18:00:12;;;;;;;17.15;4.45;;;17.30;77.50;;;;;;1879377;75;21067;-93
2022/03/29 18:03:05;;;;;;;13.60;4.62;;;17.40;77.30;;;;;;1881816;75;21653;-94
2022/03/29 18:05:58;;;;;;;10.88;4.62;;;17.40;78.00;;;;;;1892594;75;21165;-89
2022/03/29 18:08:50;;;;;;;9.18;4.30;;;17.30;79.00;;;;;;1891120;75;21059;-90
2022/03/29 18:11:44;;;;;;;13.80;4.85;;;17.30;79.70;;;;;;1904399;75;21805;-90
2022/03/29 18:14:35;;;;;;;11.65;4.95;;;17.20;80.30;;;;;;1885407;75;21096;-90
2022/03/29 18:17:27;;;;;;;14.18;4.03;;;17.40;80.50;;;;;;1882905;75;21069;-90
2022/03/29 18:20:19;;;;;;;11.48;4.55;;;17.20;80.90;;;;;;1873312;75;21057;-92
2022/03/29 18:23:13;;;;;;;12.35;4.70;;;17.20;81.50;;;;;;1882849;75;21119;-89
2022/03/29 18:26:06;;;;;;;12.70;4.67;;;17.00;82.60;;;;;;1881532;75;21124;-89
2022/03/29 18:28:58;;;;;;;14.93;4.55;;;17.00;83.00;;;;;;1875017;75;21125;-91
2022/03/29 18:31:51;;;;;;;10.78;4.65;;;17.00;83.50;;;;;;1892862;75;21055;-89
2022/03/29 18:34:45;;;;;;;9.75;4.00;;;17.00;84.30;;;;;;1885704;75;21081;-92
2022/03/29 18:37:40;;;;;;;9.63;4.50;;;17.00;85.10;;;;;;1907896;75;21067;-91